Time;durP1;ratioP1;P1;durP2;ratioP2;P2;SDS_P1;SDS_P2;PMS_P1;PMS_P2;Temp;Humidity;BMP_temperature;BMP_pressure;BME280_temperature;BME280_humidity;BME280_pressure;Samples;Min_cycle;Max_cycle;Signal;HPM_P1;HPM_P2
2024/01/03 00:01:08;;;;;;;60.20;30.47;;;;;;;3.66;62.00;99913.81;122974;1105;104293;-74
2024/01/03 00:03:43;;;;;;;57.50;28.63;;;;;;;3.67;62.11;99920.80;122983;1102;104261;-74
2024/01/03 00:06:16;;;;;;;56.03;30.23;;;;;;;3.68;62.55;99912.22;122770;1102;104422;-74
2024/01/03 00:08:48;;;;;;;55.77;29.73;;;;;;;3.70;63.17;99913.19;122997;1102;104280;-75
2024/01/03 00:11:22;;;;;;;60.85;30.45;;;;;;;3.70;62.79;99914.06;122811;1102;104306;-74
2024/01/03 00:14:06;;;;;;;57.20;29.20;;;;;;;3.71;62.54;99908.08;122790;1102;104280;-74
2024/01/03 00:16:39;;;;;;;57.90;28.73;;;;;;;3.69;62.99;99912.27;123298;1102;104293;-74
2024/01/03 00:19:21;;;;;;;57.62;27.32;;;;;;;3.69;62.76;99914.86;123362;1103;104252;-73
2024/01/03 00:21:53;;;;;;;54.87;28.30;;;;;;;3.69;63.13;99919.17;124009;1102;104290;-73
2024/01/03 00:24:24;;;;;;;53.75;27.70;;;;;;;3.67;62.99;99918.20;122954;1102;111698;-74
2024/01/03 00:26:56;;;;;;;57.37;28.27;;;;;;;3.63;63.04;99919.75;123030;1102;104312;-74
2024/01/03 00:29:59;;;;;;;51.87;27.63;;;;;;;3.61;62.65;99921.35;122879;1105;104315;-73
2024/01/03 00:32:30;;;;;;;63.23;30.90;;;;;;;3.60;62.56;99919.59;123074;1102;104232;-73
2024/01/03 00:35:02;;;;;;;62.43;30.73;;;;;;;3.57;63.29;99919.42;123046;1102;104309;-73
2024/01/03 00:37:38;;;;;;;65.37;33.73;;;;;;;3.52;63.19;99926.95;122781;1102;104261;-73
2024/01/03 00:43:33;;;;;;;68.27;33.77;;;;;;;3.46;63.47;99924.02;123515;1102;104344;-73
2024/01/03 00:46:05;;;;;;;64.83;32.20;;;;;;;3.41;62.94;99923.77;123002;1102;104284;-73
2024/01/03 00:48:37;;;;;;;61.20;32.87;;;;;;;3.33;63.04;99922.44;122937;1101;104318;-74
2024/01/03 00:51:09;;;;;;;67.20;34.10;;;;;;;3.27;63.15;99916.91;123023;1102;104419;-73
2024/01/03 00:53:40;;;;;;;65.50;33.60;;;;;;;3.27;63.33;99919.50;122847;1102;104475;-73
2024/01/03 00:56:12;;;;;;;62.63;32.63;;;;;;;3.27;63.44;99910.84;122877;1106;104313;-73
2024/01/03 00:58:43;;;;;;;62.77;32.43;;;;;;;3.27;63.67;99913.43;123068;1102;104245;-73
2024/01/03 01:01:15;;;;;;;63.43;31.07;;;;;;;3.29;63.49;99904.94;122796;1102;104278;-73
2024/01/03 01:03:46;;;;;;;62.30;31.47;;;;;;;3.30;63.52;99903.23;122871;1102;104380;-73
2024/01/03 01:06:17;;;;;;;62.27;30.90;;;;;;;3.31;64.21;99903.31;122901;1102;104249;-73
2024/01/03 01:08:49;;;;;;;63.70;31.83;;;;;;;3.33;63.13;99898.21;122857;1102;104226;-74
2024/01/03 01:11:20;;;;;;;65.67;32.17;;;;;;;3.33;63.86;99891.31;122896;1102;104277;-74
2024/01/03 01:13:51;;;;;;;61.20;30.13;;;;;;;3.33;63.54;99891.31;122812;1102;104293;-74
2024/01/03 01:16:23;;;;;;;57.83;29.87;;;;;;;3.33;63.76;99887.84;122936;1102;104386;-74
2024/01/03 01:18:54;;;;;;;61.60;29.23;;;;;;;3.32;63.91;99892.14;122897;1102;104233;-74
2024/01/03 01:21:25;;;;;;;59.57;29.37;;;;;;;3.32;63.96;99891.23;122850;1102;104297;-74
2024/01/03 01:23:56;;;;;;;57.60;28.40;;;;;;;3.30;64.16;99877.30;122836;1102;104301;-74
2024/01/03 01:26:27;;;;;;;57.17;26.43;;;;;;;3.29;63.43;99875.50;122970;1105;104352;-74
2024/01/03 01:29:01;;;;;;;52.08;24.82;;;;;;;3.28;63.60;99873.73;122835;1102;104241;-74
2024/01/03 01:31:32;;;;;;;46.03;22.80;;;;;;;3.28;63.86;99874.62;122907;1102;104486;-74
2024/01/03 01:34:03;;;;;;;46.93;22.33;;;;;;;3.28;63.92;99871.14;122904;1102;104248;-74
2024/01/03 01:36:34;;;;;;;48.97;21.77;;;;;;;3.28;64.11;99866.84;122975;1102;104302;-74
2024/01/03 01:39:05;;;;;;;47.20;20.53;;;;;;;3.28;63.98;99864.25;122931;1102;104431;-74
2024/01/03 01:41:36;;;;;;;42.85;20.25;;;;;;;3.28;64.13;99861.66;122872;1105;104339;-74
2024/01/03 01:44:08;;;;;;;39.43;18.53;;;;;;;3.29;63.75;99855.67;122943;1102;104457;-74
2024/01/03 01:46:41;;;;;;;38.17;17.47;;;;;;;3.29;63.98;99850.48;123167;1102;104370;-73
2024/01/03 01:49:12;;;;;;;40.90;18.07;;;;;;;3.32;64.11;99852.33;123460;1102;104293;-75
2024/01/03 01:51:44;;;;;;;33.90;16.57;;;;;;;3.33;64.68;99849.81;123087;1101;104635;-73
2024/01/03 01:54:17;;;;;;;34.27;16.17;;;;;;;3.34;63.62;99854.20;123055;1102;104399;-73
2024/01/03 01:56:49;;;;;;;38.35;16.10;;;;;;;3.37;64.12;99853.49;123003;1102;104309;-74
2024/01/03 01:59:22;;;;;;;33.80;15.67;;;;;;;3.40;64.03;99851.06;122839;1105;104309;-73
2024/01/03 02:01:53;;;;;;;34.77;15.60;;;;;;;3.42;63.89;99841.66;122682;1105;104463;-74
2024/01/03 02:04:25;;;;;;;30.03;13.53;;;;;;;3.42;64.62;99831.28;122920;1102;104373;-74
2024/01/03 02:06:57;;;;;;;34.43;14.07;;;;;;;3.43;64.58;99825.30;122749;1102;104274;-74
2024/01/03 02:09:28;;;;;;;32.87;13.73;;;;;;;3.44;64.25;99823.58;122644;1102;104329;-74
2024/01/03 02:12:00;;;;;;;32.50;14.23;;;;;;;3.44;63.86;99816.68;122759;1102;104300;-74
2024/01/03 02:14:31;;;;;;;32.77;13.53;;;;;;;3.45;64.01;99815.00;122686;1102;104258;-73
2024/01/03 02:17:03;;;;;;;31.00;14.03;;;;;;;3.45;64.25;99809.81;122757;1102;104306;-73
2024/01/03 02:19:34;;;;;;;29.80;12.90;;;;;;;3.44;64.48;99806.30;122723;1102;104386;-74
2024/01/03 02:22:05;;;;;;;28.70;12.47;;;;;;;3.42;64.24;99807.94;122882;1102;104849;-74
2024/01/03 02:24:36;;;;;;;32.50;13.73;;;;;;;3.38;63.94;99806.89;122814;1102;104287;-74
2024/01/03 02:27:07;;;;;;;31.03;13.03;;;;;;;3.39;64.37;99799.98;122763;1103;104303;-74
2024/01/03 02:29:39;;;;;;;30.80;12.27;;;;;;;3.39;65.10;99794.80;123092;1102;104379;-74
2024/01/03 02:32:10;;;;;;;31.60;13.23;;;;;;;3.41;64.63;99798.36;123001;1102;104514;-75
2024/01/03 02:34:41;;;;;;;29.57;13.33;;;;;;;3.41;64.54;99791.49;123075;1102;104379;-74
2024/01/03 02:37:13;;;;;;;28.07;12.80;;;;;;;3.44;64.66;99788.15;123249;1102;104197;-74
2024/01/03 02:39:44;;;;;;;25.87;12.10;;;;;;;3.47;64.94;99775.34;123003;1102;104274;-74
2024/01/03 02:42:16;;;;;;;28.27;11.03;;;;;;;3.50;64.76;99772.91;122743;1102;104287;-73
2024/01/03 02:44:47;;;;;;;29.00;12.03;;;;;;;3.52;64.40;99772.98;122758;1105;104527;-74
2024/01/03 02:47:18;;;;;;;25.33;10.70;;;;;;;3.54;64.89;99774.86;122683;1105;104322;-74
2024/01/03 02:49:49;;;;;;;26.63;11.13;;;;;;;3.55;64.13;99768.88;122903;1102;104345;-75
2024/01/03 02:52:20;;;;;;;30.50;12.47;;;;;;;3.57;64.81;99769.83;122798;1105;104489;-74
2024/01/03 02:54:51;;;;;;;26.35;11.30;;;;;;;3.57;64.78;99769.83;122993;1101;104341;-74
2024/01/03 02:57:24;;;;;;;28.67;11.70;;;;;;;3.60;65.17;99766.52;123006;1102;104338;-74
2024/01/03 02:59:55;;;;;;;27.90;11.90;;;;;;;3.62;64.24;99767.48;122979;1102;104251;-74
2024/01/03 03:02:26;;;;;;;29.05;11.55;;;;;;;3.63;64.72;99758.89;123105;1101;104386;-74
2024/01/03 03:04:57;;;;;;;30.57;12.33;;;;;;;3.65;64.63;99761.56;122686;1103;104306;-74
2024/01/03 03:07:29;;;;;;;29.70;12.13;;;;;;;3.64;64.63;99758.06;123105;1102;104299;-73
2024/01/03 03:10:00;;;;;;;27.00;12.07;;;;;;;3.65;64.55;99753.78;123103;1102;104350;-74
2024/01/03 03:12:32;;;;;;;27.93;11.97;;;;;;;3.65;64.83;99746.88;122936;1105;104476;-74
2024/01/03 03:15:04;;;;;;;30.13;12.00;;;;;;;3.65;64.83;99741.69;122988;1102;105517;-74
2024/01/03 03:17:36;;;;;;;26.83;10.97;;;;;;;3.63;64.36;99735.55;123120;1102;104693;-74
2024/01/03 03:20:08;;;;;;;29.73;11.83;;;;;;;3.60;64.87;99728.48;122752;1102;104753;-74
2024/01/03 03:22:39;;;;;;;25.57;11.17;;;;;;;3.59;64.77;99726.69;123002;1102;104441;-74
2024/01/03 03:25:11;;;;;;;27.93;11.40;;;;;;;3.57;64.52;99733.52;123049;1102;104354;-75
2024/01/03 03:27:42;;;;;;;26.85;10.50;;;;;;;3.57;64.62;99723.14;123115;1102;104347;-75
2024/01/03 03:30:14;;;;;;;23.33;10.23;;;;;;;3.59;64.26;99718.02;123064;1102;104692;-74
2024/01/03 03:32:46;;;;;;;25.17;10.20;;;;;;;3.59;64.29;99713.72;123092;1102;104271;-73
2024/01/03 03:35:17;;;;;;;23.80;10.57;;;;;;;3.58;64.21;99698.98;123052;1102;104405;-75
2024/01/03 03:37:49;;;;;;;23.50;9.90;;;;;;;3.59;64.76;99698.16;123034;1102;104280;-74
2024/01/03 03:40:21;;;;;;;22.23;9.73;;;;;;;3.58;64.74;99688.61;122678;1105;104348;-74
2024/01/03 03:42:52;;;;;;;22.90;9.30;;;;;;;3.58;64.13;99688.61;122975;1102;104304;-74
2024/01/03 03:45:23;;;;;;;22.77;8.90;;;;;;;3.59;64.95;99684.30;123071;1102;104274;-74
2024/01/03 03:47:54;;;;;;;24.73;8.77;;;;;;;3.57;65.05;99686.81;122936;1102;119035;-73
2024/01/03 03:50:26;;;;;;;22.70;9.00;;;;;;;3.58;64.90;99674.73;122824;1102;104373;-73
2024/01/03 03:52:57;;;;;;;21.97;8.03;;;;;;;3.57;64.71;99676.44;122864;1102;104252;-74
2024/01/03 03:55:28;;;;;;;24.85;8.55;;;;;;;3.58;64.43;99682.51;122863;1102;104376;-74
2024/01/03 03:57:59;;;;;;;24.83;8.70;;;;;;;3.58;64.17;99711.95;122725;1102;104383;-74
2024/01/03 04:00:30;;;;;;;24.73;8.13;;;;;;;3.57;64.57;99697.19;122996;1102;104371;-74
2024/01/03 04:03:05;;;;;;;22.73;7.97;;;;;;;3.59;64.89;99707.65;122924;1102;104306;-74
2024/01/03 04:05:38;;;;;;;21.83;7.70;;;;;;;3.59;65.17;99694.67;122739;1102;104277;-74
2024/01/03 04:08:10;;;;;;;19.93;7.87;;;;;;;3.62;64.67;99704.33;123242;1102;104349;-74
2024/01/03 04:10:42;;;;;;;18.43;7.40;;;;;;;3.63;64.65;99704.41;122992;1102;104249;-75
2024/01/03 04:13:13;;;;;;;26.60;9.37;;;;;;;3.62;65.07;99705.21;122872;1102;104525;-74
2024/01/03 04:15:44;;;;;;;18.70;7.63;;;;;;;3.64;64.70;99703.58;122878;1102;104342;-74
2024/01/03 04:18:18;;;;;;;20.80;8.50;;;;;;;3.68;64.53;99699.45;122795;1102;104622;-74
2024/01/03 04:20:49;;;;;;;24.10;7.72;;;;;;;3.68;65.10;99696.86;122942;1102;104805;-74
2024/01/03 04:23:20;;;;;;;21.47;8.07;;;;;;;3.68;64.81;99686.48;122719;1102;104683;-74
2024/01/03 04:25:52;;;;;;;24.63;8.60;;;;;;;3.71;64.74;99695.30;122827;1101;104488;-73
2024/01/03 04:28:23;;;;;;;23.47;8.90;;;;;;;3.71;65.49;99692.70;122851;1102;104280;-73
2024/01/03 04:30:57;;;;;;;28.10;10.90;;;;;;;3.70;65.34;99688.31;122987;1102;104296;-74
2024/01/03 04:33:28;;;;;;;25.40;9.83;;;;;;;3.70;64.59;99682.25;122965;1102;104332;-74
2024/01/03 04:35:59;;;;;;;27.43;11.17;;;;;;;3.68;65.12;99674.39;122872;1102;104280;-74
2024/01/03 04:38:30;;;;;;;29.57;11.87;;;;;;;3.67;64.85;99672.59;122938;1102;104297;-74
2024/01/03 04:41:01;;;;;;;27.97;11.53;;;;;;;3.64;64.43;99681.94;122948;1102;104357;-75
2024/01/03 04:43:32;;;;;;;26.17;11.07;;;;;;;3.59;64.42;99673.92;122838;1102;104341;-74
2024/01/03 04:46:04;;;;;;;26.55;11.45;;;;;;;3.56;64.96;99668.58;122860;1102;104731;-74
2024/01/03 04:48:35;;;;;;;27.67;11.57;;;;;;;3.55;65.37;99670.30;122962;1102;104255;-74
2024/01/03 04:51:07;;;;;;;27.60;10.93;;;;;;;3.53;64.76;99669.30;123448;1102;104322;-74
2024/01/03 04:53:40;;;;;;;24.97;9.73;;;;;;;3.51;65.36;99665.75;123070;1102;104294;-75
2024/01/03 04:56:11;;;;;;;24.73;9.97;;;;;;;3.49;65.18;99661.29;123035;1102;104727;-74
2024/01/03 04:58:42;;;;;;;28.80;10.40;;;;;;;3.51;65.53;99657.97;123026;1102;104252;-75
2024/01/03 05:01:13;;;;;;;25.27;10.20;;;;;;;3.56;65.00;99659.08;123051;1102;104277;-74
2024/01/03 05:03:45;;;;;;;23.43;9.83;;;;;;;3.57;65.46;99649.63;123072;1102;104268;-74
2024/01/03 05:06:16;;;;;;;28.13;10.83;;;;;;;3.57;65.57;99652.21;123004;1102;104306;-74
2024/01/03 05:08:47;;;;;;;26.63;10.20;;;;;;;3.54;65.25;99650.34;123114;1102;104331;-75
2024/01/03 05:11:19;;;;;;;26.87;10.43;;;;;;;3.50;65.55;99655.30;123063;1102;104274;-74
2024/01/03 05:13:50;;;;;;;24.30;10.25;;;;;;;3.41;66.07;99642.75;122975;1102;104270;-75
2024/01/03 05:16:21;;;;;;;25.57;10.83;;;;;;;3.37;65.73;99638.23;123075;1102;104819;-75
2024/01/03 05:18:52;;;;;;;26.90;11.33;;;;;;;3.37;65.26;99625.27;122979;1102;104303;-74
2024/01/03 05:21:23;;;;;;;26.93;10.87;;;;;;;3.39;65.87;99621.92;123036;1102;104405;-74
2024/01/03 05:23:54;;;;;;;25.43;10.90;;;;;;;3.39;65.58;99634.02;123039;1102;104329;-75
2024/01/03 05:26:26;;;;;;;25.90;11.95;;;;;;;3.40;65.65;99625.42;123008;1102;104286;-75
2024/01/03 05:28:57;;;;;;;24.03;11.13;;;;;;;3.41;66.43;99627.19;123167;1102;104386;-74
2024/01/03 05:31:29;;;;;;;25.13;10.20;;;;;;;3.41;65.43;99627.19;123180;1102;104240;-75
2024/01/03 05:37:10;;;;;;;28.30;11.10;;;;;;;3.38;66.30;99627.94;123240;1102;104361;-74
2024/01/03 05:39:41;;;;;;;26.55;10.50;;;;;;;3.42;65.38;99619.48;123492;1102;104199;-75
2024/01/03 05:42:12;;;;;;;26.70;10.77;;;;;;;3.46;66.42;99615.36;122800;1102;104533;-75
2024/01/03 05:44:44;;;;;;;25.87;11.50;;;;;;;3.46;66.30;99609.27;123266;1102;104274;-75
2024/01/03 05:47:15;;;;;;;27.83;11.70;;;;;;;3.48;65.72;99608.53;123575;1102;104386;-75
2024/01/03 05:49:46;;;;;;;27.70;11.67;;;;;;;3.50;65.98;99604.30;123197;1102;105598;-74
2024/01/03 05:52:17;;;;;;;24.30;10.90;;;;;;;3.54;66.32;99601.05;123499;1102;104176;-74
2024/01/03 05:54:48;;;;;;;25.83;10.60;;;;;;;3.56;66.06;99604.61;123327;1102;104370;-74
2024/01/03 05:57:19;;;;;;;25.63;11.20;;;;;;;3.58;66.25;99591.71;123352;1102;104371;-74
2024/01/03 05:59:52;;;;;;;28.30;11.67;;;;;;;3.58;66.27;99592.62;123525;1102;104357;-74
2024/01/03 06:02:27;;;;;;;28.25;11.40;;;;;;;3.63;65.89;99586.75;123659;1102;104175;-75
2024/01/03 06:04:58;;;;;;;26.07;10.97;;;;;;;3.64;66.73;99583.34;123383;1102;104233;-74
2024/01/03 06:07:34;;;;;;;30.00;12.07;;;;;;;3.65;66.14;99582.55;123737;1102;104355;-75
2024/01/03 06:10:09;;;;;;;25.73;11.67;;;;;;;3.67;66.09;99575.72;123106;1102;104249;-73
2024/01/03 06:12:40;;;;;;;32.60;11.93;;;;;;;3.68;65.90;99573.20;123495;1102;104325;-73
2024/01/03 06:15:13;;;;;;;29.50;12.07;;;;;;;3.72;66.47;99569.03;123378;1102;104351;-74
2024/01/03 06:17:44;;;;;;;28.85;12.20;;;;;;;3.76;66.82;99563.19;123660;1102;104239;-73
2024/01/03 06:20:18;;;;;;;30.80;11.97;;;;;;;3.80;66.39;99565.09;124189;1098;104345;-73
2024/01/03 06:22:49;;;;;;;32.13;12.20;;;;;;;3.83;66.09;99565.23;123967;1099;104293;-74
2024/01/03 06:25:21;;;;;;;30.37;11.40;;;;;;;3.88;66.62;99548.20;124191;1099;104271;-73
2024/01/03 06:27:53;;;;;;;29.30;13.47;;;;;;;3.93;66.73;99540.62;123660;1099;104219;-74
2024/01/03 06:30:24;;;;;;;34.07;13.07;;;;;;;3.98;66.33;99527.86;124402;1099;104195;-74
2024/01/03 06:33:02;;;;;;;28.70;13.27;;;;;;;4.04;66.28;99533.34;124214;1098;104219;-74
2024/01/03 06:35:48;;;;;;;31.03;12.47;;;;;;;4.09;66.81;99516.26;124357;1099;104415;-73
2024/01/03 06:38:19;;;;;;;29.13;12.63;;;;;;;4.13;66.65;99515.59;123894;1099;104268;-74
2024/01/03 06:40:53;;;;;;;25.88;11.97;;;;;;;4.18;66.72;99506.29;124359;1099;104348;-74
2024/01/03 06:43:24;;;;;;;30.33;12.00;;;;;;;4.22;66.92;99497.80;124345;1099;104348;-74
2024/01/03 06:45:56;;;;;;;30.50;12.15;;;;;;;4.28;66.83;99486.81;124657;1099;104274;-76
2024/01/03 06:48:36;;;;;;;30.50;12.47;;;;;;;4.32;66.86;99489.61;124224;1099;104370;-75
2024/01/03 06:51:08;;;;;;;28.10;12.03;;;;;;;4.39;67.03;99492.48;124030;1099;104309;-75
2024/01/03 06:53:39;;;;;;;26.53;11.07;;;;;;;4.46;67.06;99492.81;124118;1098;104185;-75
2024/01/03 06:56:13;;;;;;;25.02;10.53;;;;;;;4.54;66.81;99490.55;124026;1098;104332;-74
2024/01/03 06:58:45;;;;;;;24.33;10.47;;;;;;;4.62;66.70;99488.30;124751;1098;102873;-76
2024/01/03 07:01:16;;;;;;;25.13;10.63;;;;;;;4.70;66.61;99483.42;124137;1098;103639;-77
2024/01/03 07:03:47;;;;;;;21.60;10.23;;;;;;;4.78;67.07;99477.71;123790;1099;104243;-78
2024/01/03 07:06:19;;;;;;;24.77;10.13;;;;;;;4.87;67.19;99472.02;123961;1099;102912;-77
2024/01/03 07:08:51;;;;;;;25.47;10.63;;;;;;;4.93;66.98;99477.48;124597;1099;104232;-77
2024/01/03 07:11:22;;;;;;;23.30;10.60;;;;;;;5.00;67.12;99470.81;116130;1099;10001110;-78
2024/01/03 07:13:54;;;;;;;24.47;10.23;;;;;;;5.06;67.72;99480.59;124537;1099;104239;-76
2024/01/03 07:16:25;;;;;;;23.57;10.37;;;;;;;5.10;67.37;99472.98;124514;1099;104329;-78
2024/01/03 07:18:56;;;;;;;23.80;10.67;;;;;;;5.13;67.80;99465.30;124470;1099;104382;-76
2024/01/03 07:21:27;;;;;;;24.47;10.37;;;;;;;5.15;67.79;99462.77;124947;1099;104359;-77
2024/01/03 07:23:59;;;;;;;25.27;11.17;;;;;;;5.17;68.03;99459.41;124670;1099;104177;-77
2024/01/03 07:26:31;;;;;;;28.93;12.77;;;;;;;5.19;67.57;99456.88;124606;1099;101942;-77
2024/01/03 07:29:02;;;;;;;28.43;13.47;;;;;;;5.20;67.74;99462.14;124384;1099;102625;-77
2024/01/03 07:31:34;;;;;;;36.45;16.50;;;;;;;5.19;67.58;99460.36;124851;1099;104217;-77
2024/01/03 07:34:05;;;;;;;34.20;15.63;;;;;;;5.21;67.52;99461.30;124308;1099;104332;-77
2024/01/03 07:36:36;;;;;;;31.63;12.73;;;;;;;5.21;68.05;99448.29;124496;1099;104271;-78
2024/01/03 07:39:09;;;;;;;28.63;13.17;;;;;;;5.24;67.23;99441.45;124150;1099;103490;-77
2024/01/03 07:41:43;;;;;;;28.13;13.17;;;;;;;5.26;68.19;99437.19;124749;1099;104217;-77
2024/01/03 07:44:18;;;;;;;28.77;11.03;;;;;;;5.30;68.24;99441.67;123658;1099;104246;-77
2024/01/03 07:46:50;;;;;;;25.43;11.27;;;;;;;5.33;68.12;99431.39;124342;1099;104268;-77
2024/01/03 07:49:21;;;;;;;24.50;10.50;;;;;;;5.36;68.34;99429.81;124506;1099;102934;-77
2024/01/03 07:51:55;;;;;;;27.60;12.15;;;;;;;5.37;68.05;99423.77;124346;1099;103943;-78
2024/01/03 07:54:26;;;;;;;22.47;10.47;;;;;;;5.42;68.13;99429.14;125246;1099;104074;-77
2024/01/03 07:56:58;;;;;;;24.60;10.40;;;;;;;5.46;68.12;99423.25;124911;1098;104201;-77
2024/01/03 07:59:30;;;;;;;24.83;9.93;;;;;;;5.49;68.05;99418.16;126046;1099;102733;-75
2024/01/03 08:02:09;;;;;;;21.83;9.60;;;;;;;5.52;68.28;99414.80;125260;1098;102822;-75
2024/01/03 08:04:42;;;;;;;21.47;9.60;;;;;;;5.55;68.27;99407.99;125471;1098;102750;-75
2024/01/03 08:07:13;;;;;;;24.70;10.30;;;;;;;5.60;68.26;99400.36;125922;1098;102369;-75
2024/01/03 08:09:47;;;;;;;20.87;9.47;;;;;;;5.63;68.66;99403.08;124896;1099;104228;-76
2024/01/03 08:12:19;;;;;;;21.90;9.80;;;;;;;5.69;68.28;99402.44;125000;1099;102613;-76
2024/01/03 08:14:50;;;;;;;24.57;9.80;;;;;;;5.73;67.77;99397.41;124629;1102;104345;-76
2024/01/03 08:17:22;;;;;;;19.87;9.40;;;;;;;5.77;68.08;99385.38;124905;1099;104229;-75
2024/01/03 08:19:53;;;;;;;25.70;11.17;;;;;;;5.84;68.14;99376.06;124895;1099;104332;-75
2024/01/03 08:22:34;;;;;;;23.57;10.43;;;;;;;5.94;68.25;99378.19;124622;1099;104367;-75
2024/01/03 08:25:06;;;;;;;24.93;9.83;;;;;;;6.03;68.04;99364.62;124753;1099;104263;-76
2024/01/03 08:27:38;;;;;;;23.37;9.40;;;;;;;6.14;68.25;99351.98;124759;1099;104245;-75
2024/01/03 08:30:12;;;;;;;24.07;10.27;;;;;;;6.26;68.32;99357.62;116050;1099;10001157;-75
2024/01/03 08:32:44;;;;;;;23.20;10.43;;;;;;;6.36;68.27;99345.78;124594;1099;104224;-77
2024/01/03 08:35:19;;;;;;;22.37;9.77;;;;;;;6.45;68.23;99340.89;124554;1098;104367;-77
2024/01/03 08:37:51;;;;;;;20.00;8.97;;;;;;;6.51;68.19;99332.40;124875;1099;104288;-78
2024/01/03 08:40:22;;;;;;;23.73;9.77;;;;;;;6.53;67.68;99318.59;124705;1099;104239;-78
2024/01/03 08:42:54;;;;;;;22.37;8.90;;;;;;;6.54;67.75;99319.47;124721;1099;104245;-78
2024/01/03 08:45:26;;;;;;;21.30;9.30;;;;;;;6.54;67.56;99317.73;124776;1099;104801;-77
2024/01/03 08:47:57;;;;;;;22.57;9.63;;;;;;;6.56;68.09;99317.78;124474;1099;104354;-77
2024/01/03 08:50:28;;;;;;;20.63;9.00;;;;;;;6.60;67.94;99319.67;124150;1099;103369;-77
2024/01/03 08:53:00;;;;;;;18.37;8.30;;;;;;;6.65;67.86;99329.42;124478;1099;104267;-77
2024/01/03 08:55:31;;;;;;;22.10;8.87;;;;;;;6.73;67.80;99321.86;124543;1099;104242;-77
2024/01/03 08:58:06;;;;;;;20.70;9.03;;;;;;;6.84;67.84;99315.25;124550;1099;104175;-77
2024/01/03 09:00:37;;;;;;;19.73;9.10;;;;;;;6.96;67.70;99306.03;124526;1099;104389;-77
2024/01/03 09:03:09;;;;;;;20.87;8.50;;;;;;;7.08;67.27;99302.92;124583;1099;104169;-79
2024/01/03 09:05:40;;;;;;;21.07;9.43;;;;;;;7.15;67.69;99300.55;124713;1099;104291;-77
2024/01/03 09:08:14;;;;;;;24.23;9.18;;;;;;;7.20;67.46;99298.95;124740;1099;104270;-77
2024/01/03 09:10:45;;;;;;;21.03;9.27;;;;;;;7.26;67.41;99299.97;124140;1099;104316;-78
2024/01/03 09:13:20;;;;;;;22.80;9.20;;;;;;;7.34;67.73;99294.14;124446;1099;104226;-78
2024/01/03 09:15:51;;;;;;;20.13;8.03;;;;;;;7.40;67.09;99288.20;124518;1099;104274;-77
2024/01/03 09:18:22;;;;;;;27.35;9.10;;;;;;;7.50;67.21;99298.08;124646;1099;104259;-77
2024/01/03 09:20:53;;;;;;;19.00;8.60;;;;;;;7.63;67.28;99280.16;124541;1098;104213;-78
2024/01/03 09:23:27;;;;;;;19.00;8.33;;;;;;;7.72;67.28;99270.84;124259;1099;104351;-77
2024/01/03 09:25:59;;;;;;;21.60;8.77;;;;;;;7.80;67.27;99271.05;124604;1098;104290;-78
2024/01/03 09:28:32;;;;;;;22.53;8.03;;;;;;;7.91;67.56;99266.98;124562;1099;104185;-77
2024/01/03 09:31:05;;;;;;;22.10;8.10;;;;;;;8.01;67.11;99265.52;124601;1099;104310;-77
2024/01/03 09:33:36;;;;;;;19.67;8.10;;;;;;;8.09;66.19;99250.05;124266;1099;104408;-76
2024/01/03 09:36:16;;;;;;;15.73;6.00;;;;;;;8.17;65.93;99251.12;124471;1099;104457;-77
2024/01/03 09:38:48;;;;;;;18.70;7.13;;;;;;;8.19;66.11;99248.55;124301;1099;104188;-79
2024/01/03 09:41:20;;;;;;;19.93;7.07;;;;;;;8.19;66.02;99238.97;124089;1099;104207;-77
2024/01/03 09:43:54;;;;;;;16.57;6.27;;;;;;;8.20;65.26;99234.64;124674;1098;104274;-78
2024/01/03 09:46:26;;;;;;;18.40;6.50;;;;;;;8.21;65.97;99231.16;124765;1099;104192;-76
2024/01/03 09:48:57;;;;;;;16.87;6.20;;;;;;;8.24;66.06;99215.56;124996;1098;103913;-75
2024/01/03 09:51:29;;;;;;;16.17;6.10;;;;;;;8.26;65.49;99212.15;124127;1099;104278;-76
2024/01/03 09:54:02;;;;;;;17.50;7.03;;;;;;;8.27;65.23;99216.54;124106;1099;102357;-76
2024/01/03 09:56:34;;;;;;;18.83;6.83;;;;;;;8.30;64.62;99205.25;124755;1098;104245;-76
2024/01/03 09:59:08;;;;;;;19.40;7.45;;;;;;;8.34;65.50;99187.94;124557;1098;104315;-76
2024/01/03 10:01:39;;;;;;;16.30;6.40;;;;;;;8.41;64.60;99181.98;124644;1099;104171;-76
2024/01/03 10:04:11;;;;;;;16.87;6.63;;;;;;;8.44;64.88;99177.73;124727;1099;104201;-76
2024/01/03 10:06:54;;;;;;;16.40;6.50;;;;;;;8.50;64.43;99157.83;125013;1099;104271;-76
2024/01/03 10:09:44;;;;;;;18.90;6.63;;;;;;;8.56;63.91;99144.89;124736;1099;103244;-76
2024/01/03 10:12:20;;;;;;;18.77;6.73;;;;;;;8.62;64.08;99135.45;124983;1098;103850;-76
2024/01/03 10:14:51;;;;;;;17.67;6.30;;;;;;;8.70;63.57;99121.66;116462;1099;10001014;-77
2024/01/03 10:17:31;;;;;;;16.03;6.40;;;;;;;8.75;64.11;99110.42;124782;1099;103007;-77
2024/01/03 10:20:17;;;;;;;16.23;6.10;;;;;;;8.82;63.88;99103.61;124805;1099;104220;-76
2024/01/03 10:22:48;;;;;;;21.10;6.20;;;;;;;8.86;64.08;99097.57;124963;1098;104351;-76
2024/01/03 10:25:24;;;;;;;16.97;5.90;;;;;;;8.93;64.05;99103.83;124657;1099;102841;-76
2024/01/03 10:28:04;;;;;;;13.67;5.50;;;;;;;8.99;62.57;99099.59;124876;1099;104201;-77
2024/01/03 10:30:38;;;;;;;15.60;5.80;;;;;;;9.06;63.00;99089.24;124947;1099;104357;-78
2024/01/03 10:33:11;;;;;;;13.27;5.27;;;;;;;9.13;62.93;99085.87;126599;1098;101337;-77
2024/01/03 10:35:44;;;;;;;13.20;5.43;;;;;;;9.20;63.04;99072.06;126894;1099;102682;-76
2024/01/03 10:38:17;;;;;;;14.33;5.70;;;;;;;9.19;63.03;99062.43;126948;1098;101974;-76
2024/01/03 10:40:50;;;;;;;15.23;5.58;;;;;;;9.23;63.01;99051.17;125211;1099;102297;-78
2024/01/03 10:43:22;;;;;;;15.07;5.23;;;;;;;9.23;62.35;99050.30;124909;1099;104380;-76
2024/01/03 10:45:57;;;;;;;13.70;5.40;;;;;;;9.24;62.78;99054.66;125203;1099;103337;-77
2024/01/03 10:48:28;;;;;;;13.70;5.20;;;;;;;9.25;62.73;99044.22;124822;1099;104288;-77
2024/01/03 10:51:02;;;;;;;12.03;4.87;;;;;;;9.29;62.71;99043.44;124401;1099;104248;-77
2024/01/03 10:53:42;;;;;;;16.05;5.30;;;;;;;9.31;61.99;99036.47;124786;1099;104200;-76
2024/01/03 10:56:17;;;;;;;9.87;4.77;;;;;;;9.33;60.78;99040.02;124400;1099;104363;-77
2024/01/03 10:58:49;;;;;;;13.47;4.70;;;;;;;9.32;60.94;99040.00;124927;1099;102890;-77
2024/01/03 11:01:24;;;;;;;9.63;4.50;;;;;;;9.31;60.83;99019.91;124832;1098;104226;-78
2024/01/03 11:04:11;;;;;;;16.03;5.10;;;;;;;9.30;61.15;99023.36;124739;1099;104253;-77
2024/01/03 11:06:50;;;;;;;15.70;5.10;;;;;;;9.27;61.01;99037.30;124653;1099;104182;-76
2024/01/03 11:09:25;;;;;;;12.10;4.83;;;;;;;9.22;60.59;99028.46;125826;1099;104721;-77
2024/01/03 11:12:10;;;;;;;12.07;4.67;;;;;;;9.16;60.80;99023.12;124892;1099;104300;-77
2024/01/03 11:14:41;;;;;;;13.30;4.80;;;;;;;9.10;60.61;99026.53;124787;1099;104246;-77
2024/01/03 11:17:14;;;;;;;16.53;5.17;;;;;;;9.08;60.31;99011.64;124466;1099;108619;-77
2024/01/03 11:20:04;;;;;;;11.93;5.10;;;;;;;9.05;60.48;99009.84;125039;1099;106030;-76
2024/01/03 11:23:01;;;;;;;12.90;5.10;;;;;;;9.05;60.17;99011.59;123540;1098;103753;-76
2024/01/03 11:25:49;;;;;;;16.07;4.80;;;;;;;9.07;60.40;99004.64;124581;1100;104259;-77
2024/01/03 11:28:36;;;;;;;13.77;5.20;;;;;;;9.04;60.61;98988.88;124975;1099;104321;-76
2024/01/03 11:31:08;;;;;;;11.47;5.17;;;;;;;9.01;60.56;98981.88;126726;1099;102092;-77
2024/01/03 11:33:46;;;;;;;15.75;5.90;;;;;;;8.99;60.43;98984.47;125270;1099;104189;-77
2024/01/03 11:36:47;;;;;;;14.27;5.13;;;;;;;8.97;60.38;98985.28;124904;1099;104275;-77
2024/01/03 11:39:34;;;;;;;11.43;4.87;;;;;;;8.96;60.60;98983.52;124754;1099;104259;-77
2024/01/03 11:42:07;;;;;;;14.35;5.15;;;;;;;8.95;60.24;98985.26;124867;1099;104223;-77
2024/01/03 11:44:38;;;;;;;12.60;5.60;;;;;;;8.97;60.61;98980.92;124797;1099;104371;-76